createdAt,value
2017-12-27T02:41:01.023Z,60.20
2017-12-27T02:43:37.166Z,60.10
2017-12-27T02:46:11.189Z,59.40
2017-12-27T02:48:56.024Z,57.80
2017-12-27T02:51:49.508Z,57.70
2017-12-27T02:57:26.676Z,58.30
2017-12-27T02:59:57.655Z,58.20
2017-12-27T03:02:30.855Z,56.90
2017-12-27T03:07:58.356Z,58.30
2017-12-27T03:10:39.746Z,58.80
2017-12-27T03:13:12.582Z,58.70
2017-12-27T03:16:06.329Z,58.70
2017-12-27T03:18:38.520Z,59.40
2017-12-27T03:21:13.435Z,59.40
2017-12-27T03:23:48.409Z,59.40
2017-12-27T03:26:52.129Z,58.80
2017-12-27T03:29:27.422Z,59.40
2017-12-27T03:32:00.087Z,58.90
2017-12-27T03:34:34.282Z,57.60
2017-12-27T03:37:11.709Z,57.60
2017-12-27T03:39:43.457Z,57.50
2017-12-27T03:42:18.184Z,57.20
2017-12-27T03:44:54.442Z,57.40
2017-12-27T03:47:31.828Z,58.10
2017-12-27T03:50:08.200Z,58.10
2017-12-27T03:52:41.534Z,58.00
2017-12-27T03:55:14.948Z,59.10
2017-12-27T03:57:47.431Z,57.90
2017-12-27T04:00:27.385Z,58.40
2017-12-27T04:06:11.960Z,58.90
2017-12-27T04:08:46.406Z,60.20
2017-12-27T04:11:17.805Z,59.00
2017-12-27T04:13:50.958Z,59.20
2017-12-27T04:16:22.585Z,58.40
2017-12-27T04:19:01.353Z,58.40
2017-12-27T04:21:33.522Z,57.70
2017-12-27T04:24:06.629Z,57.00
2017-12-27T04:26:37.358Z,58.70
2017-12-27T04:29:07.848Z,58.60
2017-12-27T04:31:38.444Z,58.50
2017-12-27T04:34:10.225Z,57.90
2017-12-27T04:36:40.535Z,59.00
2017-12-27T04:39:12.123Z,58.90
2017-12-27T04:41:42.353Z,61.20
2017-12-27T04:44:17.752Z,61.20
2017-12-27T04:46:48.487Z,60.00
2017-12-27T04:49:20.900Z,59.90
2017-12-27T04:52:06.905Z,60.40
2017-12-27T04:54:37.627Z,59.50
2017-12-27T04:57:12.472Z,59.50
2017-12-27T04:59:44.971Z,59.80
2017-12-27T05:02:15.987Z,60.00
2017-12-27T05:04:50.423Z,59.10
2017-12-27T05:07:28.270Z,58.90
2017-12-27T05:10:00.591Z,58.60
2017-12-27T05:12:31.283Z,58.50
2017-12-27T05:15:05.459Z,57.80
2017-12-27T05:18:37.759Z,57.80
2017-12-27T05:21:11.111Z,58.10
2017-12-27T05:23:47.541Z,60.40
2017-12-27T05:26:28.509Z,59.40
2017-12-27T05:28:58.436Z,59.00
2017-12-27T05:31:29.591Z,59.50
2017-12-27T05:34:01.684Z,57.90
2017-12-27T05:36:35.562Z,57.80
2017-12-27T05:41:52.905Z,58.80
2017-12-27T05:44:25.286Z,58.80
2017-12-27T05:46:58.134Z,58.40
2017-12-27T05:49:29.838Z,58.20
2017-12-27T05:52:02.258Z,57.50
2017-12-27T05:54:35.993Z,58.00
2017-12-27T05:57:13.183Z,57.90
2017-12-27T05:59:45.061Z,57.90
2017-12-27T06:02:17.316Z,57.20
2017-12-27T06:04:49.004Z,58.70
2017-12-27T06:07:22.061Z,58.70
2017-12-27T06:12:31.256Z,58.50
2017-12-27T06:15:02.848Z,57.30
2017-12-27T06:17:33.349Z,57.30
2017-12-27T06:20:03.404Z,56.50
2017-12-27T06:22:38.307Z,57.90
2017-12-27T06:25:17.134Z,57.70
2017-12-27T06:27:50.134Z,57.70
2017-12-27T06:30:26.536Z,57.80
2017-12-27T06:32:58.346Z,57.70
2017-12-27T06:35:32.435Z,57.70
2017-12-27T06:38:04.978Z,57.00
2017-12-27T06:40:37.056Z,58.30
2017-12-27T06:43:12.031Z,58.30
2017-12-27T06:45:51.944Z,58.80
2017-12-27T07:10:25.698Z,59.80
2017-12-27T07:13:03.100Z,59.80
2017-12-27T07:15:34.528Z,59.00
2017-12-27T07:18:12.002Z,57.40
2017-12-27T07:20:52.100Z,57.40
2017-12-27T07:23:30.863Z,57.70
2017-12-27T07:26:00.905Z,57.50
2017-12-27T07:28:31.830Z,57.40
2017-12-27T07:31:02.643Z,58.00
2017-12-27T07:33:36.174Z,58.00
2017-12-27T07:36:09.228Z,57.70
2017-12-27T07:39:25.296Z,56.70
2017-12-27T07:49:11.766Z,56.60
2017-12-27T07:51:54.400Z,57.40
2017-12-27T07:54:30.162Z,56.50
2017-12-27T07:57:03.201Z,57.30
2017-12-27T07:59:36.002Z,57.20
2017-12-27T08:02:09.811Z,56.50
2017-12-27T08:04:41.217Z,56.40
2017-12-27T08:07:12.340Z,56.80
2017-12-27T08:09:44.699Z,56.80
2017-12-27T08:12:16.342Z,56.70
2017-12-27T08:18:37.269Z,55.80
2017-12-27T08:21:08.144Z,56.20
2017-12-27T08:24:23.730Z,55.80
2017-12-27T13:55:40.221Z,48.20
2017-12-27T13:58:10.113Z,47.70
2017-12-27T14:00:41.493Z,47.90
2017-12-27T14:03:11.296Z,47.80
2017-12-27T14:05:43.661Z,47.40
2017-12-27T14:08:13.415Z,48.00
2017-12-27T14:10:43.111Z,48.20
2017-12-27T14:13:13.154Z,48.00
2017-12-27T14:15:45.521Z,48.00
2017-12-27T14:18:15.042Z,48.30
2017-12-27T14:20:44.836Z,48.60
2017-12-27T14:23:14.446Z,48.70
2017-12-27T14:25:44.093Z,49.00
2017-12-27T14:28:14.556Z,49.10
2017-12-27T14:30:44.520Z,49.00
2017-12-27T14:33:14.950Z,49.90
2017-12-27T14:35:44.832Z,49.80
2017-12-27T14:38:14.529Z,49.90
2017-12-27T14:40:44.459Z,50.00
2017-12-27T14:43:13.920Z,51.10
2017-12-27T14:45:43.893Z,51.40
2017-12-27T14:48:13.480Z,51.00
2017-12-27T14:50:42.952Z,51.20
2017-12-27T14:53:12.708Z,51.70
2017-12-27T14:55:43.944Z,53.10
2017-12-27T14:58:25.648Z,53.40
2017-12-27T15:00:55.120Z,53.20
2017-12-27T15:03:24.674Z,53.20
2017-12-27T15:05:54.138Z,53.90
2017-12-27T15:08:23.839Z,53.70
2017-12-27T15:10:53.876Z,52.20
2017-12-27T15:13:23.510Z,52.70
2017-12-27T15:15:53.373Z,52.00
2017-12-27T15:18:31.953Z,52.30
2017-12-27T15:21:02.491Z,51.70
2017-12-27T15:23:36.430Z,51.70
2017-12-27T15:26:14.687Z,51.60
2017-12-27T15:28:53.475Z,51.50
2017-12-27T15:31:31.599Z,52.00
2017-12-27T15:34:08.181Z,51.90
2017-12-27T15:36:43.927Z,51.70
2017-12-27T15:39:19.837Z,52.50
2017-12-27T15:42:14.277Z,52.40
2017-12-27T15:45:01.204Z,52.60
2017-12-27T15:47:39.001Z,52.70
2017-12-27T15:50:18.711Z,52.50
2017-12-27T15:53:06.713Z,52.70
2017-12-27T15:56:02.738Z,52.80
2017-12-27T15:59:27.962Z,52.70
2017-12-27T16:02:04.838Z,53.50
2017-12-27T16:04:38.179Z,53.60
2017-12-27T16:07:28.576Z,53.60
2017-12-27T16:10:03.543Z,53.40
2017-12-27T16:12:37.033Z,54.80
2017-12-27T16:15:07.991Z,54.50
2017-12-27T16:17:40.585Z,54.70
2017-12-27T16:20:30.955Z,55.50
2017-12-27T16:23:00.515Z,55.30
2017-12-27T16:25:48.575Z,56.40
2017-12-27T16:28:22.201Z,56.30
2017-12-27T16:30:55.964Z,57.60
2017-12-27T16:33:53.434Z,57.50
2017-12-27T16:36:27.782Z,58.20
2017-12-27T16:39:02.236Z,57.70
2017-12-27T16:41:35.969Z,56.80
2017-12-27T16:44:08.815Z,56.80
2017-12-27T16:46:50.847Z,59.00
2017-12-27T16:49:25.478Z,58.50
2017-12-27T16:52:01.021Z,60.80
2017-12-27T16:54:37.028Z,60.90
2017-12-27T16:57:13.555Z,62.30
2017-12-27T16:59:49.428Z,61.90
2017-12-27T17:02:22.436Z,61.90
2017-12-27T17:04:58.080Z,63.20
2017-12-27T17:07:35.385Z,62.20
2017-12-27T17:10:12.244Z,61.50
2017-12-27T17:12:45.780Z,61.40
2017-12-27T17:15:18.348Z,62.50
2017-12-27T17:17:51.859Z,61.10
2017-12-27T17:20:22.921Z,62.40
2017-12-27T17:22:57.511Z,62.30
2017-12-27T17:25:28.257Z,63.30
2017-12-27T17:28:04.371Z,64.40
2017-12-27T17:30:44.920Z,63.10
2017-12-27T17:33:18.167Z,62.10
2017-12-27T17:35:52.541Z,61.50
2017-12-27T17:38:27.559Z,62.30
2017-12-27T17:41:00.923Z,62.30
2017-12-27T17:43:31.482Z,60.90
2017-12-27T17:46:06.340Z,61.40
2017-12-27T17:51:31.917Z,63.30
2017-12-27T17:54:11.057Z,63.40
2017-12-27T17:56:46.971Z,63.70
2017-12-27T17:59:18.239Z,61.40
2017-12-27T18:01:55.471Z,62.20
2017-12-27T18:04:27.115Z,61.90
2017-12-27T18:06:57.640Z,62.80
2017-12-27T18:09:28.362Z,61.70
2017-12-27T18:12:03.307Z,62.50
2017-12-27T18:14:39.676Z,62.50
2017-12-27T18:17:12.150Z,63.30
2017-12-27T18:19:46.382Z,62.10
2017-12-27T18:22:18.251Z,63.40
2017-12-27T18:24:54.488Z,64.70
2017-12-27T18:27:26.896Z,64.30
2017-12-27T18:30:12.671Z,64.00
2017-12-27T18:32:51.695Z,64.00
2017-12-27T18:35:34.962Z,65.10
2017-12-27T18:46:28.284Z,66.80
2017-12-27T18:49:18.143Z,66.60
2017-12-27T18:51:55.845Z,66.20
2017-12-27T18:54:27.947Z,68.60
2017-12-27T18:57:01.017Z,67.50
2017-12-27T18:59:32.604Z,66.40
2017-12-27T19:02:06.299Z,65.20
2017-12-27T19:04:41.493Z,65.70
2017-12-27T19:07:12.308Z,65.70
2017-12-27T19:09:44.960Z,65.70
2017-12-27T19:12:15.479Z,64.30
2017-12-27T19:14:48.275Z,63.40
2017-12-27T19:17:26.975Z,63.30
2017-12-27T19:19:58.078Z,64.20
2017-12-27T19:22:36.814Z,63.70
2017-12-27T19:25:11.000Z,63.60
2017-12-27T19:27:42.327Z,66.10
2017-12-27T19:30:15.960Z,67.60
2017-12-27T19:32:48.457Z,67.50
2017-12-27T19:35:21.962Z,67.00
2017-12-27T19:37:55.009Z,67.50
2017-12-27T19:40:26.376Z,67.50
2017-12-27T19:43:00.396Z,65.80
2017-12-27T19:45:31.998Z,65.40
2017-12-27T19:48:06.298Z,64.50
2017-12-27T19:50:40.302Z,63.90
2017-12-27T19:53:13.057Z,64.30
2017-12-27T19:55:48.015Z,63.60
2017-12-27T19:58:21.354Z,63.30
2017-12-27T20:00:52.206Z,63.60
2017-12-27T20:03:31.935Z,65.20
2017-12-27T20:06:54.807Z,62.70
2017-12-27T20:10:19.558Z,63.70
2017-12-27T20:12:51.820Z,63.20
2017-12-27T20:15:26.231Z,65.60
2017-12-27T20:17:59.501Z,64.40
2017-12-27T20:20:32.530Z,65.20
2017-12-27T20:23:08.512Z,65.20
2017-12-27T20:25:41.695Z,64.10
2017-12-27T20:28:18.119Z,62.50
2017-12-27T20:31:00.713Z,61.80
2017-12-27T20:33:38.128Z,62.40
2017-12-27T20:36:11.061Z,63.00
2017-12-27T20:38:46.369Z,64.00
2017-12-27T20:41:21.012Z,63.00
2017-12-27T20:43:52.506Z,63.10
2017-12-27T20:46:29.628Z,63.10
2017-12-27T20:51:44.393Z,64.20
2017-12-27T20:54:19.347Z,63.90
2017-12-27T20:57:01.104Z,63.80
2017-12-27T21:06:59.831Z,64.50
2017-12-27T21:09:35.794Z,64.60
2017-12-27T21:12:09.331Z,65.50
2017-12-27T21:14:41.720Z,65.40
2017-12-27T21:17:17.819Z,65.40
2017-12-27T21:22:55.183Z,64.40
2017-12-27T21:25:25.543Z,64.30
2017-12-27T21:28:23.582Z,64.80
2017-12-27T21:30:56.262Z,67.70
2017-12-27T21:33:28.406Z,68.30
2017-12-27T21:35:58.063Z,68.90
2017-12-27T21:38:31.476Z,66.50
2017-12-27T21:41:02.850Z,64.30
2017-12-27T21:43:36.543Z,66.30
2017-12-27T21:46:11.415Z,68.80
2017-12-27T21:48:47.831Z,69.90
2017-12-27T21:51:22.263Z,69.70
2017-12-27T21:53:55.064Z,66.60
2017-12-27T21:56:25.146Z,66.10
2017-12-27T21:59:09.728Z,68.10
2017-12-27T22:01:47.210Z,68.40
2017-12-27T22:04:19.579Z,67.30
2017-12-27T22:06:52.871Z,65.70
2017-12-27T22:09:25.032Z,65.30
2017-12-27T22:15:33.803Z,63.80
2017-12-27T22:18:06.177Z,63.70
2017-12-27T22:20:43.538Z,63.60
2017-12-27T22:23:16.568Z,64.30
2017-12-27T22:25:47.956Z,63.20
2017-12-27T22:28:27.584Z,63.10
2017-12-27T22:31:02.421Z,62.80
2017-12-27T22:33:38.053Z,63.60
2017-12-27T22:36:10.501Z,66.50
2017-12-27T22:38:42.147Z,66.00
2017-12-27T22:41:12.450Z,66.40
2017-12-27T22:43:56.387Z,65.90
2017-12-27T22:46:49.219Z,69.20
2017-12-27T22:49:20.007Z,71.30
2017-12-27T22:51:56.888Z,69.70
2017-12-27T22:55:27.111Z,66.70
2017-12-27T22:58:37.254Z,66.70
2017-12-27T23:01:13.893Z,65.70
2017-12-27T23:03:46.209Z,64.20
2017-12-27T23:14:03.479Z,66.30
2017-12-27T23:16:42.031Z,65.40
2017-12-27T23:19:42.820Z,66.10
2017-12-27T23:22:49.742Z,66.00
2017-12-27T23:29:41.132Z,66.00
2017-12-27T23:40:37.922Z,66.50
2017-12-27T23:43:15.454Z,66.80
2017-12-27T23:45:56.211Z,66.80
2017-12-27T23:48:35.963Z,66.40
2017-12-27T23:51:06.892Z,66.40
2017-12-27T23:53:44.351Z,67.70
2017-12-27T23:57:16.719Z,66.20
2017-12-27T23:59:52.593Z,66.10
